Time;durP1;ratioP1;P1;durP2;ratioP2;P2;SDS_P1;SDS_P2;PMS_P1;PMS_P2;Temp;Humidity;BMP_temperature;BMP_pressure;BME280_temperature;BME280_humidity;BME280_pressure;Samples;Min_cycle;Max_cycle;Signal;HPM_P1;HPM_P2
2023/12/01 00:00:49;;;;;;;94.47;38.13;;;-1.50;85.00;;;;;;5042879;28;20071;-72
2023/12/01 00:03:15;;;;;;;92.83;37.03;;;-1.50;85.00;;;;;;5030381;28;20435;-73
2023/12/01 00:05:41;;;;;;;90.80;36.00;;;-1.50;85.00;;;;;;5016005;28;20397;-73
2023/12/01 00:08:06;;;;;;;96.83;37.57;;;-1.50;84.90;;;;;;5025386;28;20396;-71
2023/12/01 00:10:32;;;;;;;98.63;38.03;;;-1.50;84.90;;;;;;5024564;28;20045;-74
2023/12/01 00:12:58;;;;;;;91.70;37.93;;;-1.50;84.80;;;;;;5037300;28;20059;-71
2023/12/01 00:15:23;;;;;;;92.60;37.93;;;-1.60;84.80;;;;;;5046682;28;20076;-74
2023/12/01 00:17:50;;;;;;;94.23;38.23;;;-1.50;84.80;;;;;;5034444;28;20059;-72
2023/12/01 00:20:16;;;;;;;90.77;37.57;;;-1.60;84.80;;;;;;5016559;28;21423;-71
2023/12/01 00:22:42;;;;;;;83.33;37.90;;;-1.60;84.70;;;;;;5021979;28;20128;-72
2023/12/01 00:25:08;;;;;;;78.10;34.97;;;-1.60;84.70;;;;;;5020866;28;20084;-72
2023/12/01 00:27:33;;;;;;;71.40;32.80;;;-1.60;84.70;;;;;;5037457;28;20146;-71
2023/12/01 00:29:59;;;;;;;63.63;31.40;;;-1.60;84.60;;;;;;5052092;28;20095;-71
2023/12/01 00:32:25;;;;;;;58.50;28.80;;;-1.60;84.60;;;;;;5041775;28;20053;-71
2023/12/01 00:34:50;;;;;;;55.73;28.73;;;-1.70;84.50;;;;;;5048654;28;20068;-71
2023/12/01 00:37:16;;;;;;;60.47;29.77;;;-1.70;84.30;;;;;;5033334;28;20041;-71
2023/12/01 00:39:42;;;;;;;59.10;27.60;;;-1.80;84.30;;;;;;5036725;28;20045;-71
2023/12/01 00:42:08;;;;;;;61.60;29.87;;;-1.80;84.30;;;;;;5043727;28;20563;-71
2023/12/01 00:44:33;;;;;;;63.67;31.20;;;-1.80;84.10;;;;;;5044218;28;20364;-72
2023/12/01 00:46:59;;;;;;;64.70;31.20;;;-1.80;84.10;;;;;;5045536;28;20057;-71
2023/12/01 00:49:25;;;;;;;61.70;31.03;;;-1.90;84.10;;;;;;5045024;28;20049;-72
2023/12/01 00:51:50;;;;;;;63.77;30.53;;;-1.90;84.00;;;;;;5045464;28;20049;-71
2023/12/01 00:54:16;;;;;;;66.60;29.73;;;-1.90;84.10;;;;;;5044355;28;20467;-71
2023/12/01 00:56:41;;;;;;;61.43;29.30;;;-1.90;84.10;;;;;;5043175;28;20103;-74
2023/12/01 00:59:07;;;;;;;68.33;30.97;;;-1.90;84.10;;;;;;5046045;28;20063;-71
2023/12/01 01:01:35;;;;;;;57.03;28.90;;;-2.00;84.00;;;;;;5037066;28;20052;-73
2023/12/01 01:04:00;;;;;;;56.80;28.60;;;-2.00;84.00;;;;;;5016202;28;20061;-72
2023/12/01 01:06:26;;;;;;;57.23;28.97;;;-2.00;84.00;;;;;;5021570;28;20045;-74
2023/12/01 01:08:52;;;;;;;64.67;31.77;;;-2.10;84.00;;;;;;5025348;28;20238;-71
2023/12/01 01:11:17;;;;;;;62.30;30.87;;;-2.10;84.00;;;;;;5024669;28;20045;-72
2023/12/01 01:13:43;;;;;;;62.40;30.23;;;-2.10;84.00;;;;;;5025872;28;20501;-71
2023/12/01 01:16:10;;;;;;;60.73;30.33;;;-2.10;84.00;;;;;;5019316;28;20061;-71
2023/12/01 01:18:35;;;;;;;57.87;28.67;;;-2.10;84.00;;;;;;5026316;28;20073;-71
2023/12/01 01:21:01;;;;;;;65.80;29.43;;;-2.10;84.00;;;;;;5024366;28;20077;-72
2023/12/01 01:23:27;;;;;;;62.00;28.73;;;-2.10;84.00;;;;;;5025486;28;20037;-72
2023/12/01 01:25:52;;;;;;;61.47;29.73;;;-2.10;84.00;;;;;;5024639;28;20053;-71
2023/12/01 01:28:18;;;;;;;69.00;31.37;;;-2.20;83.80;;;;;;5026203;28;20848;-71
2023/12/01 01:30:44;;;;;;;66.10;31.33;;;-2.20;83.60;;;;;;5024221;28;20064;-73
2023/12/01 01:33:10;;;;;;;65.73;31.37;;;-2.30;83.70;;;;;;5045378;28;20064;-72
2023/12/01 01:35:35;;;;;;;62.30;29.87;;;-2.30;83.60;;;;;;5043868;28;20056;-72
2023/12/01 01:38:01;;;;;;;63.30;30.20;;;-2.30;83.70;;;;;;5045021;28;20064;-71
2023/12/01 01:40:27;;;;;;;66.50;31.13;;;-2.40;83.70;;;;;;5043887;28;20040;-72
2023/12/01 01:42:52;;;;;;;68.37;31.30;;;-2.40;83.70;;;;;;5045398;28;20066;-71
2023/12/01 01:45:18;;;;;;;67.70;30.33;;;-2.40;83.70;;;;;;5045051;28;20072;-72
2023/12/01 01:47:44;;;;;;;66.03;31.17;;;-2.40;83.70;;;;;;5044816;28;20183;-72
2023/12/01 01:50:10;;;;;;;73.77;32.47;;;-2.40;83.70;;;;;;5043847;28;20050;-72
2023/12/01 01:52:37;;;;;;;74.13;32.67;;;-2.40;83.70;;;;;;5045672;28;20138;-70
2023/12/01 01:55:03;;;;;;;69.50;32.27;;;-2.40;83.80;;;;;;5045382;28;20060;-72
2023/12/01 01:57:35;;;;;;;74.73;33.27;;;-2.40;83.80;;;;;;5045136;28;20041;-71
2023/12/01 02:00:01;;;;;;;71.73;32.53;;;-2.40;83.80;;;;;;5044507;28;20057;-73
2023/12/01 02:02:27;;;;;;;77.97;34.47;;;-2.40;83.80;;;;;;5043408;28;20041;-72
2023/12/01 02:04:53;;;;;;;75.10;32.77;;;-2.50;83.70;;;;;;5043797;28;20128;-73
2023/12/01 02:07:26;;;;;;;78.83;33.03;;;-2.50;83.70;;;;;;5034388;28;20076;-73
2023/12/01 02:09:51;;;;;;;79.57;34.43;;;-2.50;83.60;;;;;;5026295;28;20523;-70
2023/12/01 02:12:17;;;;;;;79.23;33.77;;;-2.60;83.60;;;;;;5044441;28;20053;-73
2023/12/01 02:14:42;;;;;;;81.57;36.00;;;-2.60;83.60;;;;;;5045117;28;20204;-73
2023/12/01 02:17:08;;;;;;;82.87;35.70;;;-2.60;83.70;;;;;;5043849;28;20045;-72
2023/12/01 02:19:34;;;;;;;80.03;35.67;;;-2.60;83.60;;;;;;5044423;28;20041;-71
2023/12/01 02:21:59;;;;;;;85.87;36.50;;;-2.60;83.70;;;;;;5044084;28;20531;-72
2023/12/01 02:24:25;;;;;;;93.30;36.00;;;-2.60;83.70;;;;;;5043279;28;20567;-72
2023/12/01 02:26:51;;;;;;;87.70;36.17;;;-2.60;83.70;;;;;;5052685;28;20044;-72
2023/12/01 02:29:16;;;;;;;87.60;37.40;;;-2.60;83.70;;;;;;5049834;28;20037;-72
2023/12/01 02:31:42;;;;;;;90.10;36.07;;;-2.60;83.70;;;;;;5043859;28;20052;-72
2023/12/01 02:34:08;;;;;;;92.13;37.50;;;-2.60;83.70;;;;;;5045089;28;20064;-71
2023/12/01 02:36:33;;;;;;;89.83;36.07;;;-2.60;83.80;;;;;;5046079;28;20045;-73
2023/12/01 02:38:59;;;;;;;92.60;38.93;;;-2.60;83.70;;;;;;5048229;28;20171;-71
2023/12/01 02:41:25;;;;;;;88.80;36.00;;;-2.60;83.70;;;;;;5048342;28;20563;-72
2023/12/01 02:43:50;;;;;;;99.90;37.60;;;-2.70;83.60;;;;;;5048974;28;20052;-71
2023/12/01 02:46:22;;;;;;;96.43;36.43;;;-2.60;83.80;;;;;;5046242;28;20068;-71
2023/12/01 02:48:48;;;;;;;87.50;36.22;;;-2.60;83.80;;;;;;5048622;28;20443;-72
2023/12/01 02:51:13;;;;;;;95.23;35.57;;;-2.70;83.70;;;;;;5045694;28;20048;-73
2023/12/01 02:53:39;;;;;;;97.83;36.40;;;-2.70;83.80;;;;;;5048876;28;20056;-72
2023/12/01 02:56:05;;;;;;;85.40;34.70;;;-2.70;83.80;;;;;;5047394;28;20061;-72
2023/12/01 02:58:31;;;;;;;88.20;35.07;;;-2.70;83.70;;;;;;5048729;28;20048;-73
2023/12/01 03:00:57;;;;;;;83.47;33.07;;;-2.70;83.70;;;;;;5021878;28;20049;-72
2023/12/01 03:03:23;;;;;;;86.73;35.47;;;-2.80;83.70;;;;;;5007382;28;20053;-74
2023/12/01 03:05:48;;;;;;;88.60;35.77;;;-2.80;83.60;;;;;;5016705;28;20057;-72
2023/12/01 03:08:14;;;;;;;85.93;35.10;;;-2.90;83.60;;;;;;5045959;28;20053;-72
2023/12/01 03:10:40;;;;;;;82.83;33.47;;;-2.90;83.60;;;;;;5047545;28;20381;-72
2023/12/01 03:13:05;;;;;;;87.07;35.20;;;-3.00;83.60;;;;;;5048050;28;20045;-72
2023/12/01 03:15:31;;;;;;;82.30;32.47;;;-3.10;83.50;;;;;;5047811;28;20330;-73
2023/12/01 03:17:58;;;;;;;79.27;32.27;;;-3.20;83.40;;;;;;5047225;28;20072;-72
2023/12/01 03:20:27;;;;;;;79.10;31.73;;;-3.20;83.30;;;;;;5047453;28;20076;-71
2023/12/01 03:22:53;;;;;;;76.70;32.90;;;-3.20;83.30;;;;;;5047069;28;20512;-72
2023/12/01 03:25:19;;;;;;;83.37;34.07;;;-3.30;83.30;;;;;;5047333;28;20053;-73
2023/12/01 03:27:48;;;;;;;76.00;32.67;;;-3.40;83.30;;;;;;5047638;28;20063;-71
2023/12/01 03:30:18;;;;;;;83.47;32.80;;;-3.40;83.40;;;;;;5044916;28;20049;-71
2023/12/01 03:32:50;;;;;;;88.13;34.03;;;-3.50;83.30;;;;;;5048024;28;20159;-71
2023/12/01 03:35:17;;;;;;;89.50;33.77;;;-3.50;83.40;;;;;;5047480;28;20103;-71
2023/12/01 03:37:46;;;;;;;84.07;31.90;;;-3.60;83.40;;;;;;5047958;28;20496;-71
2023/12/01 03:40:13;;;;;;;76.63;31.93;;;-3.60;83.40;;;;;;5047010;28;20128;-71
2023/12/01 03:42:47;;;;;;;83.67;32.37;;;-3.60;83.40;;;;;;5047059;28;20480;-71
2023/12/01 03:45:13;;;;;;;78.67;32.90;;;-3.60;83.40;;;;;;5047317;28;20055;-72
2023/12/01 03:47:46;;;;;;;79.80;32.17;;;-3.60;83.40;;;;;;5047740;28;20059;-72
2023/12/01 03:50:12;;;;;;;86.00;34.20;;;-3.70;83.40;;;;;;5046674;28;20049;-72
2023/12/01 03:52:42;;;;;;;81.03;33.03;;;-3.80;83.40;;;;;;5047774;28;20377;-72
2023/12/01 03:55:09;;;;;;;83.03;32.73;;;-3.80;83.40;;;;;;5026652;28;20464;-71
2023/12/01 03:57:35;;;;;;;83.23;32.70;;;-3.80;83.50;;;;;;5046946;28;20082;-71
2023/12/01 04:00:04;;;;;;;84.77;33.43;;;-3.80;83.50;;;;;;5045759;28;20049;-71
2023/12/01 04:02:30;;;;;;;87.87;34.07;;;-3.80;83.50;;;;;;5046927;28;20049;-70
2023/12/01 04:04:56;;;;;;;82.60;33.07;;;-3.80;83.50;;;;;;5034667;28;20139;-71
2023/12/01 04:07:22;;;;;;;82.20;31.67;;;-3.90;83.50;;;;;;5019448;28;20068;-71
2023/12/01 04:09:47;;;;;;;82.30;32.20;;;-4.00;83.50;;;;;;5026763;28;20080;-71
2023/12/01 04:12:13;;;;;;;81.17;29.97;;;-4.00;83.50;;;;;;5026586;28;20119;-70
2023/12/01 04:14:39;;;;;;;71.30;28.87;;;-4.00;83.60;;;;;;5027734;28;20056;-71
2023/12/01 04:17:10;;;;;;;73.43;29.43;;;-4.00;83.50;;;;;;5044684;28;20044;-71
2023/12/01 04:19:37;;;;;;;;;;;-4.00;83.60;;;;;;5047447;28;20411;-70
2023/12/01 04:22:06;;;;;;;73.30;27.27;;;-4.10;83.50;;;;;;5046317;28;19920;-71
2023/12/01 04:24:33;;;;;;;78.07;29.10;;;-4.10;83.50;;;;;;5047250;28;20451;-71
2023/12/01 04:27:01;;;;;;;78.40;30.27;;;-4.20;83.50;;;;;;5045923;28;20052;-71
2023/12/01 04:29:30;;;;;;;80.53;30.70;;;-4.20;83.50;;;;;;5046554;28;20080;-71
2023/12/01 04:31:57;;;;;;;77.63;31.07;;;-4.20;83.50;;;;;;5045250;28;20049;-71
2023/12/01 04:34:26;;;;;;;84.33;31.07;;;-4.30;83.50;;;;;;5046831;28;20055;-70
2023/12/01 04:36:55;;;;;;;75.77;29.37;;;-4.30;83.50;;;;;;5044683;28;20041;-70
2023/12/01 04:39:20;;;;;;;91.30;33.23;;;-4.30;83.50;;;;;;5044968;28;20527;-71
2023/12/01 04:41:50;;;;;;;83.17;30.80;;;-4.30;83.50;;;;;;5044410;28;20048;-72
2023/12/01 04:44:16;;;;;;;79.67;30.40;;;-4.40;83.60;;;;;;5045401;28;20049;-71
2023/12/01 04:46:42;;;;;;;85.90;32.07;;;-4.40;83.50;;;;;;5045507;28;20108;-72
2023/12/01 04:49:08;;;;;;;86.10;32.23;;;-4.40;83.50;;;;;;5045633;28;20045;-71
2023/12/01 04:51:37;;;;;;;77.03;29.97;;;-4.50;83.50;;;;;;5045212;28;20394;-71
2023/12/01 04:54:06;;;;;;;79.13;31.93;;;-4.60;83.50;;;;;;5028554;28;20053;-70
2023/12/01 04:56:33;;;;;;;80.50;30.93;;;-4.60;83.50;;;;;;5045244;28;20621;-70
2023/12/01 04:59:00;;;;;;;85.60;32.00;;;-4.60;83.50;;;;;;5045138;28;20128;-71
2023/12/01 05:01:25;;;;;;;79.10;30.73;;;-4.60;83.50;;;;;;5034058;28;20046;-71
2023/12/01 05:03:51;;;;;;;73.13;28.93;;;-4.60;83.50;;;;;;5028545;28;20064;-70
2023/12/01 05:06:16;;;;;;;74.30;29.73;;;-4.60;83.50;;;;;;5028946;28;20109;-71
2023/12/01 05:08:42;;;;;;;87.33;32.23;;;-4.60;83.50;;;;;;5045946;28;20041;-70
2023/12/01 05:11:08;;;;;;;78.67;32.00;;;-4.60;83.50;;;;;;5045046;28;20059;-72
2023/12/01 05:13:33;;;;;;;81.90;32.47;;;-4.60;83.50;;;;;;5046417;28;20052;-71
2023/12/01 05:16:00;;;;;;;89.63;34.57;;;-4.70;83.50;;;;;;5045238;28;20064;-71
2023/12/01 05:18:26;;;;;;;77.90;31.93;;;-4.70;83.50;;;;;;5044858;28;20040;-71
2023/12/01 05:20:51;;;;;;;82.07;31.60;;;-4.70;83.60;;;;;;5043400;28;20045;-68
2023/12/01 05:23:17;;;;;;;69.03;27.73;;;-4.70;83.60;;;;;;5044588;28;20056;-70
2023/12/01 05:25:43;;;;;;;79.50;29.17;;;-4.80;83.50;;;;;;5045972;28;20116;-74
2023/12/01 05:28:10;;;;;;;80.40;30.70;;;-4.80;83.50;;;;;;5045598;28;20473;-71
2023/12/01 05:30:41;;;;;;;89.47;31.67;;;-4.90;83.40;;;;;;5045421;28;20415;-72
2023/12/01 05:33:06;;;;;;;66.07;24.75;;;-4.90;83.40;;;;;;5043845;28;20041;-72
2023/12/01 05:35:34;;;;;;;82.67;30.57;;;-4.90;83.50;;;;;;5042792;28;20107;-71
2023/12/01 05:38:01;;;;;;;72.17;27.33;;;-4.90;83.50;;;;;;5042725;28;20069;-70
2023/12/01 05:40:34;;;;;;;80.13;31.03;;;-5.00;83.50;;;;;;5040496;28;20577;-71
2023/12/01 05:43:00;;;;;;;85.53;31.47;;;-5.00;83.50;;;;;;5032093;28;20074;-72
2023/12/01 05:45:28;;;;;;;77.67;29.83;;;-5.00;83.50;;;;;;5031133;28;20431;-71
2023/12/01 05:47:55;;;;;;;78.20;28.60;;;-5.00;83.50;;;;;;5029311;28;20506;-71
2023/12/01 05:50:28;;;;;;;80.30;28.23;;;-5.00;83.50;;;;;;5014050;28;20045;-72
2023/12/01 05:52:56;;;;;;;68.57;26.47;;;-5.00;83.50;;;;;;5017059;28;20041;-71
2023/12/01 05:55:33;;;;;;;70.97;27.87;;;-5.10;83.40;;;;;;5035296;28;20057;-72
2023/12/01 05:58:01;;;;;;;101.67;79.20;;;-5.10;83.50;;;;;;5022711;28;20037;-71
2023/12/01 06:00:30;;;;;;;83.93;29.73;;;-5.20;83.40;;;;;;5032140;28;20389;-71
2023/12/01 06:02:58;;;;;;;82.73;28.53;;;-5.20;83.40;;;;;;5042033;28;20306;-72
2023/12/01 06:05:24;;;;;;;86.87;30.13;;;-5.20;83.50;;;;;;5041780;28;20052;-70
2023/12/01 06:07:56;;;;;;;81.87;29.70;;;-5.10;83.50;;;;;;5042625;28;20416;-72
2023/12/01 06:10:22;;;;;;;87.63;31.10;;;-5.10;83.60;;;;;;5042705;28;20563;-71
2023/12/01 06:12:49;;;;;;;74.97;29.00;;;-5.10;83.60;;;;;;5044372;28;20060;-72
2023/12/01 06:15:16;;;;;;;67.50;25.77;;;-5.20;83.50;;;;;;5044481;28;20057;-72
2023/12/01 06:17:46;;;;;;;81.87;30.20;;;-5.20;83.50;;;;;;5044950;28;20052;-72
2023/12/01 06:20:19;;;;;;;70.07;27.03;;;-5.20;83.50;;;;;;5044223;28;20118;-72
2023/12/01 06:22:48;;;;;;;75.83;27.83;;;-5.20;83.50;;;;;;5045131;28;20122;-70
2023/12/01 06:25:15;;;;;;;66.83;26.13;;;-5.20;83.50;;;;;;5044117;28;20057;-73
2023/12/01 06:27:42;;;;;;;74.93;27.10;;;-5.20;83.40;;;;;;5045103;28;20534;-70
2023/12/01 06:30:12;;;;;;;68.97;26.17;;;-5.30;83.50;;;;;;5042574;28;20508;-71
2023/12/01 06:32:44;;;;;;;69.53;26.33;;;-5.30;83.40;;;;;;5044060;28;20506;-71
2023/12/01 06:35:15;;;;;;;69.13;26.53;;;-5.40;83.40;;;;;;5043779;28;20053;-71
2023/12/01 06:37:42;;;;;;;50.55;18.80;;;-5.40;83.40;;;;;;5027092;28;20056;-70
2023/12/01 06:40:12;;;;;;;73.50;27.10;;;-5.40;83.40;;;;;;5044241;28;20492;-70
2023/12/01 06:42:45;;;;;;;68.00;25.70;;;-5.40;83.40;;;;;;5043218;28;20056;-71
2023/12/01 06:45:13;;;;;;;76.67;30.03;;;-5.40;83.40;;;;;;5043776;28;20404;-71
2023/12/01 06:47:41;;;;;;;67.83;26.13;;;-5.40;83.40;;;;;;5045006;28;20045;-72
2023/12/01 06:50:09;;;;;;;65.77;25.83;;;-5.40;83.40;;;;;;5043862;28;20307;-71
2023/12/01 06:52:36;;;;;;;73.97;26.80;;;-5.40;83.40;;;;;;5043871;28;20041;-70
2023/12/01 06:55:04;;;;;;;69.67;27.40;;;-5.40;83.40;;;;;;5044120;28;20056;-71
2023/12/01 06:57:29;;;;;;;70.37;25.33;;;-5.40;83.40;;;;;;5044511;28;20563;-71
2023/12/01 06:59:55;;;;;;;77.13;29.17;;;-5.40;83.40;;;;;;5044752;28;20547;-71
2023/12/01 07:02:22;;;;;;;80.03;28.97;;;-5.40;83.40;;;;;;5043480;28;20045;-71
2023/12/01 07:04:48;;;;;;;77.87;28.97;;;-5.40;83.40;;;;;;5042760;28;20107;-71
2023/12/01 07:07:14;;;;;;;78.10;28.77;;;-5.50;83.30;;;;;;5044067;28;20387;-71
2023/12/01 07:09:43;;;;;;;81.67;28.63;;;-5.50;83.30;;;;;;5044520;28;20467;-72
2023/12/01 07:12:09;;;;;;;77.23;29.60;;;-5.50;83.30;;;;;;5063803;28;20400;-71
2023/12/01 07:14:36;;;;;;;78.80;28.63;;;-5.60;83.40;;;;;;5053974;28;20049;-71
2023/12/01 07:17:05;;;;;;;75.30;27.87;;;-5.60;83.30;;;;;;5040621;28;20068;-70
2023/12/01 07:19:32;;;;;;;84.27;30.67;;;-5.60;83.30;;;;;;5042500;28;20049;-70
2023/12/01 07:21:59;;;;;;;82.47;28.67;;;-5.60;83.30;;;;;;5041542;28;20143;-72
2023/12/01 07:24:24;;;;;;;80.50;28.43;;;-5.60;83.30;;;;;;5047360;28;20045;-70
2023/12/01 07:26:51;;;;;;;82.60;29.70;;;-5.60;83.20;;;;;;5052597;28;20084;-71
2023/12/01 07:29:18;;;;;;;73.80;27.30;;;-5.60;83.30;;;;;;5051322;28;20214;-70
2023/12/01 07:31:44;;;;;;;83.43;28.50;;;-5.60;83.30;;;;;;5046702;28;20374;-71
2023/12/01 07:34:11;;;;;;;92.13;31.23;;;-5.60;83.30;;;;;;5045124;28;20517;-71
2023/12/01 07:36:39;;;;;;;92.10;31.00;;;-5.60;83.30;;;;;;5043441;28;20047;-70
2023/12/01 07:39:05;;;;;;;86.77;30.77;;;-5.60;83.30;;;;;;5044923;28;20283;-71
2023/12/01 07:41:33;;;;;;;93.27;32.03;;;-5.60;83.30;;;;;;5037852;28;20385;-70
2023/12/01 07:43:59;;;;;;;84.73;30.17;;;-5.60;83.30;;;;;;5038969;28;20111;-70
2023/12/01 07:46:25;;;;;;;85.70;29.90;;;-5.60;83.30;;;;;;5042452;28;20060;-71
2023/12/01 07:48:51;;;;;;;94.07;31.90;;;-5.60;83.40;;;;;;5041210;28;20052;-71
2023/12/01 07:51:16;;;;;;;98.47;33.20;;;-5.60;83.40;;;;;;5037648;28;20593;-71
2023/12/01 07:53:45;;;;;;;89.20;32.83;;;-5.50;83.40;;;;;;5037959;28;20467;-70
2023/12/01 07:56:21;;;;;;;90.97;32.53;;;-5.40;83.50;;;;;;5035420;28;20057;-72
2023/12/01 07:58:48;;;;;;;99.47;35.83;;;-5.40;83.50;;;;;;5035250;28;20178;-72
2023/12/01 08:01:14;;;;;;;113.23;36.57;;;-5.40;83.60;;;;;;5042358;28;20046;-71
2023/12/01 08:03:44;;;;;;;106.77;36.77;;;-5.20;83.60;;;;;;5023606;28;20106;-72
2023/12/01 08:06:10;;;;;;;102.57;34.30;;;-5.20;83.60;;;;;;5029819;28;20144;-72
2023/12/01 08:08:36;;;;;;;92.10;32.93;;;-5.20;83.60;;;;;;5015468;28;20128;-74
2023/12/01 08:11:05;;;;;;;100.37;34.47;;;-5.10;83.70;;;;;;5000764;28;20172;-72
2023/12/01 08:13:31;;;;;;;104.17;34.30;;;-4.90;83.80;;;;;;5020996;28;20045;-72
2023/12/01 08:15:57;;;;;;;104.70;34.90;;;-4.80;83.80;;;;;;5013015;28;20607;-69
2023/12/01 08:18:22;;;;;;;107.17;34.33;;;-4.60;83.70;;;;;;5010967;28;20054;-71
2023/12/01 08:20:49;;;;;;;93.53;33.60;;;-4.60;83.70;;;;;;5012094;28;20054;-72
2023/12/01 08:23:15;;;;;;;109.73;35.33;;;-4.40;83.80;;;;;;5012165;28;20717;-71
2023/12/01 08:25:44;;;;;;;92.47;33.70;;;-4.40;83.70;;;;;;5011323;28;20530;-74
2023/12/01 08:28:10;;;;;;;92.00;33.27;;;-4.30;83.70;;;;;;5011577;28;20059;-72
2023/12/01 08:30:36;;;;;;;104.97;35.37;;;-4.20;83.70;;;;;;5013048;28;20057;-74
2023/12/01 08:33:03;;;;;;;88.50;33.87;;;-4.20;83.70;;;;;;5010718;28;20053;-71
2023/12/01 08:35:29;;;;;;;101.70;34.10;;;-4.10;83.70;;;;;;5012835;28;20089;-71
2023/12/01 08:37:55;;;;;;;87.43;34.37;;;-4.00;83.70;;;;;;5011652;28;20128;-71
2023/12/01 08:40:21;;;;;;;106.63;35.70;;;-3.90;83.90;;;;;;5013389;28;20048;-73
2023/12/01 08:42:47;;;;;;;90.13;34.90;;;-3.50;83.90;;;;;;5012337;28;20053;-72
2023/12/01 08:45:12;;;;;;;94.77;35.67;;;-3.20;83.60;;;;;;5010710;28;20425;-72
2023/12/01 08:47:39;;;;;;;85.47;34.07;;;-3.10;82.90;;;;;;5012438;28;20108;-72
2023/12/01 08:50:05;;;;;;;85.80;33.60;;;-3.00;82.30;;;;;;5011639;28;20057;-71
2023/12/01 08:52:31;;;;;;;72.23;30.93;;;-3.10;82.20;;;;;;5012121;28;20046;-71
2023/12/01 08:54:58;;;;;;;74.00;30.97;;;-3.20;82.20;;;;;;5011357;28;20440;-72
2023/12/01 08:57:24;;;;;;;66.90;28.70;;;-3.30;82.30;;;;;;5011555;28;20058;-72
2023/12/01 08:59:50;;;;;;;66.77;29.27;;;-3.40;82.40;;;;;;5012376;28;20398;-71
2023/12/01 09:02:15;;;;;;;74.83;31.00;;;-3.50;82.50;;;;;;5010173;28;20544;-74
2023/12/01 09:04:41;;;;;;;66.27;29.97;;;-3.50;82.60;;;;;;5013529;28;20050;-73
2023/12/01 09:07:07;;;;;;;63.40;28.70;;;-3.60;82.70;;;;;;5014014;28;20076;-74
2023/12/01 09:09:33;;;;;;;65.30;27.77;;;-3.60;82.80;;;;;;5013148;28;20512;-72
2023/12/01 09:11:58;;;;;;;66.33;29.47;;;-3.60;82.80;;;;;;5013391;28;20177;-71
2023/12/01 09:14:24;;;;;;;65.90;30.03;;;-3.60;82.80;;;;;;5014105;28;20138;-74
2023/12/01 09:16:50;;;;;;;64.33;29.00;;;-3.60;82.90;;;;;;5011671;28;20516;-71
2023/12/01 09:19:15;;;;;;;69.53;29.60;;;-3.50;82.90;;;;;;5013594;28;20068;-73
2023/12/01 09:21:41;;;;;;;71.93;30.60;;;-3.50;82.90;;;;;;5014543;28;20094;-72
2023/12/01 09:24:07;;;;;;;66.40;29.00;;;-3.50;83.00;;;;;;5013292;28;20412;-72
2023/12/01 09:26:33;;;;;;;69.30;30.17;;;-3.50;83.00;;;;;;5014476;28;20052;-72
2023/12/01 09:28:58;;;;;;;69.90;29.87;;;-3.50;83.00;;;;;;5012614;28;20666;-73
2023/12/01 09:31:24;;;;;;;68.70;29.93;;;-3.40;83.10;;;;;;5014303;28;20077;-71
2023/12/01 09:33:50;;;;;;;62.83;29.50;;;-3.20;83.10;;;;;;5014184;28;20053;-72
2023/12/01 09:36:18;;;;;;;69.47;30.30;;;-3.00;83.10;;;;;;5013284;28;20107;-72
2023/12/01 09:38:44;;;;;;;68.10;31.07;;;-2.80;83.20;;;;;;5013341;28;20045;-73
2023/12/01 09:41:11;;;;;;;73.30;31.40;;;-2.50;83.20;;;;;;5012561;28;20085;-72
2023/12/01 09:43:38;;;;;;;68.80;31.97;;;-2.40;83.10;;;;;;5011124;28;20059;-74
2023/12/01 09:46:04;;;;;;;70.77;31.87;;;-2.30;82.90;;;;;;5010233;28;20500;-72
2023/12/01 09:48:33;;;;;;;65.83;30.53;;;-2.30;82.90;;;;;;5013399;28;20053;-72
2023/12/01 09:50:59;;;;;;;68.17;31.60;;;-2.30;82.80;;;;;;5011908;28;20053;-72
2023/12/01 09:53:25;;;;;;;71.07;32.20;;;-2.20;82.90;;;;;;5012467;28;20492;-72
2023/12/01 09:55:51;;;;;;;62.50;31.37;;;-2.10;83.00;;;;;;5011733;28;20056;-71
2023/12/01 09:58:19;;;;;;;67.73;33.30;;;-1.90;82.90;;;;;;5012842;28;20111;-74
2023/12/01 10:00:48;;;;;;;68.13;30.90;;;-1.70;83.00;;;;;;5011994;28;20064;-72
2023/12/01 10:03:13;;;;;;;63.13;31.07;;;-1.50;82.80;;;;;;5011255;28;20051;-74
2023/12/01 10:05:43;;;;;;;66.97;32.70;;;-1.40;82.80;;;;;;5013014;28;20053;-73
2023/12/01 10:08:09;;;;;;;76.37;34.07;;;-1.10;83.00;;;;;;5012833;28;20057;-72
2023/12/01 10:10:34;;;;;;;71.97;32.80;;;-0.70;83.70;;;;;;5011698;28;20542;-74
2023/12/01 10:13:04;;;;;;;68.43;33.90;;;-0.40;83.60;;;;;;5012353;28;20057;-73
2023/12/01 10:15:32;;;;;;;63.97;32.33;;;-0.10;81.80;;;;;;5012960;28;20413;-72
2023/12/01 10:18:25;;;;;;;56.67;30.33;;;0.00;81.10;;;;;;5011296;28;20060;-72
2023/12/01 10:20:59;;;;;;;55.33;29.97;;;0.40;81.40;;;;;;5009213;28;20061;-74
2023/12/01 10:23:25;;;;;;;51.57;28.87;;;1.00;81.40;;;;;;5012624;28;20128;-75
2023/12/01 10:25:53;;;;;;;50.77;28.40;;;1.30;80.70;;;;;;5019584;28;20106;-75
2023/12/01 10:28:19;;;;;;;48.00;27.30;;;1.40;78.90;;;;;;5030963;28;20228;-72
2023/12/01 10:30:58;;;;;;;44.73;26.90;;;1.20;78.70;;;;;;5029900;28;20420;-73
2023/12/01 10:33:28;;;;;;;42.67;25.60;;;1.00;78.90;;;;;;5033330;28;20049;-73
2023/12/01 10:35:58;;;;;;;43.83;26.23;;;0.80;78.20;;;;;;5029507;28;20496;-73
2023/12/01 10:38:26;;;;;;;41.00;24.87;;;1.00;79.00;;;;;;5030559;28;20080;-73
2023/12/01 10:40:53;;;;;;;41.60;25.73;;;1.10;77.90;;;;;;5031132;28;20067;-74
2023/12/01 10:43:21;;;;;;;42.07;24.73;;;1.10;78.00;;;;;;5032564;28;20823;-74
2023/12/01 10:45:48;;;;;;;42.07;24.37;;;1.10;78.20;;;;;;5030777;28;20053;-73
2023/12/01 10:48:14;;;;;;;40.13;24.43;;;1.30;78.90;;;;;;5031337;28;20065;-75
2023/12/01 10:50:42;;;;;;;43.43;24.87;;;2.00;78.80;;;;;;5030249;28;20147;-75
2023/12/01 10:53:10;;;;;;;44.33;28.33;;;2.70;78.50;;;;;;5031391;28;20056;-74
2023/12/01 10:55:36;;;;;;;41.33;26.00;;;3.30;77.70;;;;;;5032745;28;20057;-74
2023/12/01 10:58:08;;;;;;;39.67;25.60;;;3.60;75.70;;;;;;5032646;28;20531;-72
2023/12/01 11:00:34;;;;;;;38.40;26.57;;;3.70;76.10;;;;;;5020748;28;20139;-74
2023/12/01 11:03:03;;;;;;;44.00;26.80;;;3.60;76.50;;;;;;5022172;28;20057;-74
2023/12/01 11:05:31;;;;;;;41.80;27.43;;;3.70;76.80;;;;;;5020523;28;20634;-75
2023/12/01 11:08:13;;;;;;;41.63;26.67;;;4.10;76.90;;;;;;5020388;28;20057;-73
2023/12/01 11:10:51;;;;;;;41.73;26.30;;;4.70;75.30;;;;;;5017263;28;20057;-75
2023/12/01 11:13:27;;;;;;;37.43;25.73;;;4.70;75.00;;;;;;5016203;28;20065;-74
2023/12/01 11:15:55;;;;;;;37.17;25.90;;;4.50;73.00;;;;;;5019808;28;20415;-72
2023/12/01 11:18:21;;;;;;;39.57;26.67;;;4.10;72.40;;;;;;5016803;28;20060;-72
2023/12/01 11:20:48;;;;;;;40.60;27.07;;;4.20;73.70;;;;;;5023477;28;20048;-73
2023/12/01 11:23:19;;;;;;;38.93;26.27;;;4.30;73.50;;;;;;5017021;28;20058;-75
2023/12/01 11:25:56;;;;;;;41.80;27.02;;;4.50;73.70;;;;;;5014589;28;20060;-75
2023/12/01 11:31:08;;;;;;;36.40;24.67;;;5.20;72.60;;;;;;5013392;28;20033;-73
2023/12/01 11:33:48;;;;;;;36.30;24.60;;;5.30;71.50;;;;;;5015550;28;20128;-74
2023/12/01 11:36:34;;;;;;;34.63;25.33;;;5.30;72.30;;;;;;5013557;28;20045;-75
2023/12/01 11:39:23;;;;;;;36.30;24.97;;;4.70;73.10;;;;;;5015557;28;20907;-73
2023/12/01 11:41:54;;;;;;;36.50;24.93;;;4.20;73.20;;;;;;5019336;28;20103;-75
2023/12/01 11:44:24;;;;;;;29.52;18.88;;;3.70;73.80;;;;;;5014485;28;20049;-73
2023/12/01 11:47:01;;;;;;;37.03;24.90;;;3.20;73.20;;;;;;5015218;28;20052;-72
2023/12/01 11:49:38;;;;;;;36.93;25.20;;;2.80;74.60;;;;;;5015899;28;20107;-73
2023/12/01 11:52:14;;;;;;;37.47;24.23;;;2.50;74.80;;;;;;5016305;28;20718;-75
2023/12/01 11:54:41;;;;;;;34.27;22.77;;;2.10;75.40;;;;;;5014342;28;20076;-73
2023/12/01 11:57:17;;;;;;;36.07;23.53;;;1.80;75.90;;;;;;5014968;28;20112;-74
2023/12/01 11:59:43;;;;;;;35.97;24.97;;;1.60;76.00;;;;;;5014142;28;20042;-74
2023/12/01 12:02:09;;;;;;;41.63;26.00;;;1.40;76.10;;;;;;5013029;28;20475;-73
2023/12/01 12:04:37;;;;;;;38.73;25.87;;;1.20;76.40;;;;;;5015404;28;20068;-72
2023/12/01 12:07:05;;;;;;;44.30;25.97;;;1.00;76.70;;;;;;5015315;28;20132;-72
2023/12/01 12:09:32;;;;;;;40.03;25.83;;;0.90;76.50;;;;;;5015840;28;20053;-73
2023/12/01 12:11:59;;;;;;;37.70;23.57;;;0.60;76.90;;;;;;5013771;28;20049;-74
2023/12/01 12:14:29;;;;;;;37.13;24.97;;;0.50;77.10;;;;;;5016382;28;20479;-72
2023/12/01 12:16:55;;;;;;;39.17;24.77;;;0.30;77.00;;;;;;5012936;28;20045;-72
2023/12/01 12:19:22;;;;;;;38.17;24.70;;;0.20;77.30;;;;;;5015161;28;20083;-72
2023/12/01 12:21:48;;;;;;;36.70;24.03;;;0.20;77.60;;;;;;5015645;28;20076;-72
2023/12/01 12:24:15;;;;;;;43.20;25.10;;;0.20;77.70;;;;;;5015550;28;20147;-73
2023/12/01 12:26:40;;;;;;;43.97;27.87;;;0.20;77.40;;;;;;5014045;28;20037;-75
2023/12/01 12:29:07;;;;;;;40.00;24.83;;;0.20;77.00;;;;;;5015160;28;20045;-73
2023/12/01 12:31:37;;;;;;;41.53;25.73;;;0.40;77.50;;;;;;5015721;28;20053;-73